Time;durP1;ratioP1;P1;durP2;ratioP2;P2;SDS_P1;SDS_P2;PMS_P1;PMS_P2;Temp;Humidity;BMP_temperature;BMP_pressure;BME280_temperature;BME280_humidity;BME280_pressure;Samples;Min_cycle;Max_cycle;Signal;HPM_P1;HPM_P2
2022/06/01 00:03:15;;;;;;;13.63;10.35;;;12.90;99.90;;;;;;8384779;28;20484;-73
2022/06/01 00:07:19;;;;;;;15.10;12.20;;;12.80;99.90;;;;;;8383354;28;20491;-73
2022/06/01 00:11:21;;;;;;;;;;;12.70;99.90;;;;;;8379364;28;20317;-74
2022/06/01 00:15:24;;;;;;;;;;;12.70;99.90;;;;;;8397070;28;19928;-73
2022/06/01 00:19:26;;;;;;;;;;;12.60;99.90;;;;;;8379424;28;19924;-73
2022/06/01 00:23:27;;;;;;;;;;;12.50;99.90;;;;;;8381794;28;20386;-73
2022/06/01 00:27:29;;;;;;;;;;;12.40;99.90;;;;;;8391192;28;19955;-72
2022/06/01 00:31:43;;;;;;;;;;;12.30;99.90;;;;;;8379218;28;20533;-72
2022/06/01 00:35:45;;;;;;;;;;;12.30;99.90;;;;;;8374387;28;19943;-73
2022/06/01 00:39:47;;;;;;;;;;;12.20;99.90;;;;;;8380039;28;19925;-73
2022/06/01 00:43:49;;;;;;;;;;;12.20;99.90;;;;;;8379462;28;19928;-73
2022/06/01 00:48:15;;;;;;;;;;;12.20;99.90;;;;;;8398169;27;19936;-73
2022/06/01 00:52:35;;;;;;;;;;;12.20;99.90;;;;;;8376335;28;20336;-72
2022/06/01 00:56:39;;;;;;;;;;;12.30;99.90;;;;;;8377962;28;19926;-73
2022/06/01 01:00:41;;;;;;;;;;;12.30;99.90;;;;;;8394330;28;19928;-73
2022/06/01 01:04:43;;;;;;;;;;;12.30;99.90;;;;;;8378402;28;20005;-73
2022/06/01 01:08:49;;;;;;;;;;;12.30;99.90;;;;;;8378778;28;19927;-72
2022/06/01 01:12:57;;;;;;;;;;;12.30;99.90;;;;;;8374242;28;19947;-74
2022/06/01 01:16:59;;;;;;;;;;;12.30;99.90;;;;;;8394385;28;20324;-73
2022/06/01 01:21:19;;;;;;;;;;;12.30;99.90;;;;;;8379855;28;19993;-72
2022/06/01 01:25:28;;;;;;;;;;;12.30;99.90;;;;;;8376925;28;19931;-73
2022/06/01 01:29:34;;;;;;;;;;;12.40;99.90;;;;;;8382429;28;19927;-73
2022/06/01 01:33:36;;;;;;;;;;;12.40;99.90;;;;;;8377357;28;20552;-73
2022/06/01 01:37:38;;;;;;;;;;;12.40;99.90;;;;;;8379128;28;20324;-73
2022/06/01 01:41:44;;;;;;;;;;;12.40;99.90;;;;;;8392579;28;19928;-73
2022/06/01 01:45:46;;;;;;;;;;;12.40;99.90;;;;;;8382718;28;19924;-73
2022/06/01 01:49:47;;;;;;;;;;;12.40;99.90;;;;;;8380268;28;19927;-73
2022/06/01 01:53:49;;;;;;;;;;;12.40;99.90;;;;;;8376035;28;19924;-73
2022/06/01 01:58:00;;;;;;;;;;;12.30;99.90;;;;;;8377004;28;19920;-74
2022/06/01 02:02:06;;;;;;;;;;;12.30;99.90;;;;;;8392098;28;19920;-73
2022/06/01 02:06:20;;;;;;;;;;;12.20;99.90;;;;;;8379338;28;19995;-73
2022/06/01 02:14:52;;;;;;;;;;;12.10;99.90;;;;;;8376458;28;19920;-73
2022/06/01 02:18:56;;;;;;;;;;;12.10;99.90;;;;;;8377928;28;19921;-73
2022/06/01 02:22:59;;;;;;;;;;;12.00;99.90;;;;;;8375915;28;19920;-73
2022/06/01 02:27:04;;;;;;;;;;;11.90;99.90;;;;;;8374573;28;19924;-73
2022/06/01 02:31:06;;;;;;;;;;;11.90;99.90;;;;;;8375085;28;19925;-73
2022/06/01 02:35:09;;;;;;;;;;;11.90;99.90;;;;;;8372681;28;20346;-73
2022/06/01 02:39:14;;;;;;;;;;;11.90;99.90;;;;;;8375365;28;19920;-73
2022/06/01 02:43:16;;;;;;;;;;;11.90;99.90;;;;;;8379381;28;19924;-73
2022/06/01 02:47:34;;;;;;;;;;;11.90;99.90;;;;;;8374354;28;19924;-73
2022/06/01 02:51:36;;;;;;;;;;;12.00;99.90;;;;;;8371829;28;19943;-73
2022/06/01 02:55:38;;;;;;;;;;;11.90;99.90;;;;;;8375683;28;19924;-73
2022/06/01 02:59:40;;;;;;;;;;;11.90;99.90;;;;;;8378949;28;19932;-73
2022/06/01 03:03:41;;;;;;;;;;;11.80;99.90;;;;;;8385106;28;19920;-73
2022/06/01 03:07:43;;;;;;;;;;;11.70;99.90;;;;;;8379638;28;19951;-73
2022/06/01 03:11:45;;;;;;;;;;;11.70;99.90;;;;;;8377886;28;19928;-73
2022/06/01 03:15:46;;;;;;;;;;;11.70;99.90;;;;;;8378333;28;20371;-73
2022/06/01 03:19:48;;;;;;;;;;;11.60;99.90;;;;;;8389120;28;19920;-73
2022/06/01 03:23:50;;;;;;;;;;;11.60;99.90;;;;;;8382577;28;19951;-73
2022/06/01 03:27:53;;;;;;;;;;;11.60;99.90;;;;;;8382901;28;19927;-73
2022/06/01 03:31:55;;;;;;;;;;;11.70;99.90;;;;;;8382932;28;19920;-73
2022/06/01 03:35:57;;;;;;;;;;;11.70;99.90;;;;;;8385681;28;20031;-74
2022/06/01 03:39:58;;;;;;;;;;;11.60;99.90;;;;;;8406107;27;19931;-73
2022/06/01 03:48:21;;;;;;;;;;;11.50;99.90;;;;;;8379706;28;19935;-74
2022/06/01 03:52:25;;;;;;;;;;;11.40;99.90;;;;;;8381867;28;19920;-73
2022/06/01 03:56:26;;;;;;;;;;;11.40;99.90;;;;;;8381026;28;19921;-74
2022/06/01 04:00:28;;;;;;;;;;;11.40;99.90;;;;;;8390121;28;19929;-73
2022/06/01 04:04:30;;;;;;;;;;;11.40;99.90;;;;;;8387035;28;20352;-74
2022/06/01 04:08:32;;;;;;;;;;;11.40;99.90;;;;;;8390209;28;20413;-73
2022/06/01 04:12:34;;;;;;;;;;;11.50;99.90;;;;;;8394375;28;19920;-74
2022/06/01 04:16:36;;;;;;;;;;;11.40;99.90;;;;;;8390870;28;19928;-73
2022/06/01 04:20:38;;;;;;;;;;;11.40;99.90;;;;;;8401961;28;19928;-73
2022/06/01 04:24:40;;;;;;;;;;;11.40;99.90;;;;;;8385578;28;19974;-73
2022/06/01 04:28:42;;;;;;;;;;;11.40;99.90;;;;;;8388560;28;19928;-74
2022/06/01 04:32:46;;;;;;;;;;;11.40;99.90;;;;;;8389123;28;19920;-74
2022/06/01 04:36:47;;;;;;;;;;;11.60;99.90;;;;;;8390286;28;20136;-73
2022/06/01 04:40:50;;;;;;;;;;;11.60;99.90;;;;;;8383773;28;19962;-74
2022/06/01 04:44:52;;;;;;;;;;;11.70;99.90;;;;;;8437413;27;19920;-73
2022/06/01 04:48:53;;;;;;;;;;;11.60;99.90;;;;;;8398728;28;19920;-73
2022/06/01 04:52:55;;;;;;;;;;;11.60;99.90;;;;;;8406498;28;19920;-73
2022/06/01 04:56:57;;;;;;;;;;;11.60;99.90;;;;;;8390310;28;20364;-73
2022/06/01 05:00:58;;;;;;;;;;;11.60;99.90;;;;;;8384690;28;20351;-73
2022/06/01 05:05:00;;;;;;;;;;;11.70;99.90;;;;;;8384583;28;20131;-73
2022/06/01 05:09:02;;;;;;;;;;;11.70;99.90;;;;;;8399528;28;19920;-73
2022/06/01 05:13:04;;;;;;;;;;;11.80;99.90;;;;;;8386573;28;20288;-73
2022/06/01 05:17:05;;;;;;;;;;;11.90;99.90;;;;;;8384168;28;19928;-73
2022/06/01 05:21:07;;;;;;;;;;;12.00;99.90;;;;;;8405295;28;19968;-73
2022/06/01 05:25:09;;;;;;;;;;;12.10;99.90;;;;;;8384563;28;19920;-73
2022/06/01 05:29:10;;;;;;;;;;;12.10;99.90;;;;;;8404567;28;19925;-73
2022/06/01 05:33:12;;;;;;;;;;;12.20;99.90;;;;;;8384826;28;20419;-73
2022/06/01 05:37:14;;;;;;;;;;;12.20;99.90;;;;;;8389724;28;19927;-73
2022/06/01 05:41:16;;;;;;;;;;;12.30;99.90;;;;;;8408214;28;19932;-73
2022/06/01 05:45:29;;;;;;;;;;;12.30;99.90;;;;;;8411464;27;19955;-74
2022/06/01 05:49:31;;;;;;;;;;;12.30;99.90;;;;;;8412262;28;19977;-73
2022/06/01 05:53:33;;;;;;;;;;;12.30;99.90;;;;;;8413117;28;19947;-74
2022/06/01 05:57:35;;;;;;;;;;;12.40;99.90;;;;;;8401467;28;19979;-74
2022/06/01 06:01:36;;;;;;;;;;;12.40;99.90;;;;;;8399968;28;20370;-74
2022/06/01 06:09:59;;;;;;;;;;;12.50;99.90;;;;;;8410536;28;19924;-74
2022/06/01 06:14:00;;;;;;;;;;;12.50;99.90;;;;;;8407711;28;19925;-74
2022/06/01 06:18:02;;;;;;;;;;;12.60;99.90;;;;;;8408219;28;19925;-73
2022/06/01 06:22:08;;;;;;;9.70;6.05;;;12.70;99.90;;;;;;8419377;28;19925;-74
2022/06/01 06:26:10;;;;;;;10.98;7.30;;;12.80;99.90;;;;;;8450634;27;20051;-74
2022/06/01 06:30:12;;;;;;;6.68;4.90;;;12.90;99.90;;;;;;8418118;28;20055;-73
2022/06/01 06:34:18;;;;;;;9.07;6.10;;;13.00;99.90;;;;;;8418284;28;20048;-73
2022/06/01 06:38:19;;;;;;;7.03;4.68;;;13.00;99.90;;;;;;8412225;28;20135;-73
2022/06/01 06:42:21;;;;;;;7.32;4.88;;;13.10;99.90;;;;;;8420485;28;20778;-74
2022/06/01 06:46:23;;;;;;;8.15;5.18;;;13.20;99.90;;;;;;8422902;28;20091;-73
2022/06/01 06:50:25;;;;;;;7.10;4.82;;;13.30;99.90;;;;;;8419160;28;20408;-74
2022/06/01 06:54:47;;;;;;;6.90;4.40;;;13.40;99.90;;;;;;8410712;28;20488;-74
2022/06/01 06:58:49;;;;;;;9.50;6.05;;;13.40;99.90;;;;;;8396703;28;20052;-74
2022/06/01 07:02:51;;;;;;;9.73;6.22;;;13.50;99.90;;;;;;8401524;28;20496;-74
2022/06/01 07:06:52;;;;;;;8.23;4.47;;;13.70;99.90;;;;;;8399374;28;20412;-74
2022/06/01 07:10:55;;;;;;;7.70;4.57;;;13.70;99.90;;;;;;8392156;28;20502;-74
2022/06/01 07:14:57;;;;;;;7.00;4.20;;;13.70;99.90;;;;;;8395375;28;20056;-74
2022/06/01 07:19:01;;;;;;;8.20;4.85;;;13.70;99.90;;;;;;8392204;28;20408;-74
2022/06/01 07:23:03;;;;;;;8.25;4.20;;;13.80;99.90;;;;;;8390590;28;20045;-73
2022/06/01 07:27:05;;;;;;;7.47;4.57;;;13.90;99.90;;;;;;8401812;28;20400;-75
2022/06/01 07:31:08;;;;;;;6.78;4.25;;;13.90;99.90;;;;;;8398061;28;20049;-74
2022/06/01 07:35:11;;;;;;;6.55;3.60;;;14.10;99.90;;;;;;8393120;28;20048;-74
2022/06/01 07:43:33;;;;;;;7.10;4.00;;;14.20;99.90;;;;;;8386018;28;20060;-74
2022/06/01 07:47:35;;;;;;;9.63;4.43;;;14.30;99.90;;;;;;8390078;28;20481;-74
2022/06/01 07:51:57;;;;;;;8.20;4.13;;;14.30;99.90;;;;;;8385528;28;20046;-74
2022/06/01 07:55:59;;;;;;;5.93;3.17;;;14.40;99.90;;;;;;8382619;28;20045;-74
2022/06/01 08:00:01;;;;;;;6.28;3.40;;;14.40;99.90;;;;;;8389262;28;20041;-74
2022/06/01 08:04:04;;;;;;;5.75;3.70;;;14.40;99.90;;;;;;8423448;27;20056;-74
2022/06/01 08:08:37;;;;;;;5.63;3.28;;;14.40;99.90;;;;;;8385242;28;20075;-74
2022/06/01 08:13:06;;;;;;;6.43;3.53;;;14.50;99.90;;;;;;8368746;28;20416;-74
2022/06/01 08:17:08;;;;;;;5.72;3.47;;;14.50;99.90;;;;;;8354976;28;20659;-73
2022/06/01 08:21:09;;;;;;;6.07;4.10;;;14.40;99.90;;;;;;8356454;28;20131;-73
2022/06/01 08:25:14;;;;;;;6.38;3.80;;;14.50;99.90;;;;;;8354680;28;20045;-74
2022/06/01 08:29:16;;;;;;;7.15;4.10;;;14.50;99.90;;;;;;8358653;28;20060;-71
2022/06/01 08:33:18;;;;;;;5.10;3.40;;;14.50;99.90;;;;;;8354747;28;20068;-72
2022/06/01 08:37:20;;;;;;;7.22;3.83;;;14.50;99.90;;;;;;8362608;28;20391;-71
2022/06/01 08:41:29;;;;;;;6.20;3.05;;;14.60;99.90;;;;;;8353627;28;20044;-72
2022/06/01 08:45:33;;;;;;;4.80;3.00;;;14.80;99.90;;;;;;8358025;28;20045;-72
2022/06/01 08:49:39;;;;;;;5.68;3.70;;;14.90;99.90;;;;;;8362038;28;20139;-72
2022/06/01 08:53:41;;;;;;;5.40;3.00;;;14.90;99.90;;;;;;8375231;28;20048;-72
2022/06/01 08:58:06;;;;;;;4.57;2.42;;;14.90;99.90;;;;;;8354287;28;20098;-72
2022/06/01 09:02:19;;;;;;;4.22;2.55;;;14.80;99.90;;;;;;8358346;28;20060;-72
2022/06/01 09:06:36;;;;;;;4.90;2.63;;;14.70;99.90;;;;;;8353608;28;20477;-72
2022/06/01 09:10:51;;;;;;;5.13;2.35;;;14.60;99.90;;;;;;8355945;28;20049;-72
2022/06/01 09:14:57;;;;;;;4.82;2.78;;;14.60;99.90;;;;;;8354484;28;20049;-72
2022/06/01 09:18:59;;;;;;;5.65;2.60;;;14.60;99.90;;;;;;8352518;28;20064;-72
2022/06/01 09:23:06;;;;;;;7.15;3.55;;;14.70;99.90;;;;;;8354823;28;20412;-72
2022/06/01 09:27:12;;;;;;;4.85;3.00;;;14.90;99.90;;;;;;8356742;28;20468;-72
2022/06/01 09:31:18;;;;;;;6.28;3.22;;;15.00;99.90;;;;;;8356457;28;20041;-72
2022/06/01 09:35:20;;;;;;;5.30;3.00;;;15.10;99.90;;;;;;8357945;28;20052;-72
2022/06/01 09:39:23;;;;;;;4.30;2.65;;;15.20;99.90;;;;;;8362936;28;20493;-71
2022/06/01 09:43:25;;;;;;;4.72;3.13;;;15.30;99.90;;;;;;8356672;28;20064;-72
2022/06/01 09:47:31;;;;;;;4.38;2.72;;;15.40;99.90;;;;;;8364159;28;20098;-72
2022/06/01 09:51:37;;;;;;;4.93;2.88;;;15.30;99.90;;;;;;8363361;28;20381;-71
2022/06/01 09:55:53;;;;;;;4.30;2.67;;;15.50;99.90;;;;;;8360683;28;20048;-72
2022/06/01 10:08:59;;;;;;;4.13;2.20;;;15.50;99.90;;;;;;8356675;28;20049;-72
2022/06/01 10:13:02;;;;;;;4.20;2.20;;;15.60;99.90;;;;;;8359887;28;20060;-72
2022/06/01 10:17:06;;;;;;;5.30;2.20;;;15.70;99.90;;;;;;8379505;28;20048;-72
2022/06/01 10:21:14;;;;;;;4.35;2.10;;;15.80;99.90;;;;;;8379407;28;20048;-72
2022/06/01 10:25:38;;;;;;;3.72;1.50;;;15.90;99.90;;;;;;8357764;28;20056;-72
2022/06/01 10:29:48;;;;;;;3.10;1.67;;;15.90;99.90;;;;;;8376080;28;20049;-72
2022/06/01 10:33:55;;;;;;;3.15;1.60;;;16.00;99.90;;;;;;8375355;28;20052;-72
2022/06/01 10:38:10;;;;;;;3.45;1.48;;;16.10;99.90;;;;;;8371187;28;20109;-72
2022/06/01 10:42:24;;;;;;;4.75;1.90;;;16.00;99.90;;;;;;8359369;28;20052;-72
2022/06/01 10:46:37;;;;;;;3.35;1.67;;;16.20;99.90;;;;;;8364924;28;20047;-72
2022/06/01 10:50:49;;;;;;;3.67;1.55;;;16.30;99.90;;;;;;8360051;28;20131;-73
2022/06/01 10:55:03;;;;;;;4.18;1.50;;;16.30;99.90;;;;;;8361757;28;20044;-72
2022/06/01 10:59:10;;;;;;;4.65;1.92;;;16.40;99.90;;;;;;8356340;28;20044;-74
2022/06/01 11:03:25;;;;;;;3.23;1.60;;;16.30;99.90;;;;;;8362582;28;20052;-74
2022/06/01 11:07:49;;;;;;;4.05;1.55;;;16.10;99.90;;;;;;8366591;28;20307;-75
2022/06/01 11:11:58;;;;;;;2.97;1.58;;;16.00;99.90;;;;;;8368854;28;20089;-74
2022/06/01 11:16:22;;;;;;;3.35;1.65;;;15.80;99.90;;;;;;8340833;28;20088;-74
2022/06/01 11:20:48;;;;;;;3.40;1.60;;;15.90;99.90;;;;;;8341360;28;20396;-74
2022/06/01 11:25:11;;;;;;;3.07;1.40;;;16.00;99.90;;;;;;8352556;28;20049;-74
2022/06/01 11:29:45;;;;;;;2.97;1.58;;;16.10;99.90;;;;;;8353421;28;20098;-74
2022/06/01 11:34:05;;;;;;;4.35;1.60;;;16.20;99.90;;;;;;8359446;28;20586;-74
2022/06/01 11:38:09;;;;;;;2.92;1.50;;;16.30;99.90;;;;;;8360014;28;20476;-74
2022/06/01 11:42:32;;;;;;;4.05;1.52;;;16.40;99.90;;;;;;8358005;28;20060;-74
2022/06/01 11:46:43;;;;;;;3.67;1.73;;;16.40;99.90;;;;;;8358034;28;20045;-74
2022/06/01 11:50:53;;;;;;;4.65;1.65;;;16.40;99.90;;;;;;8361028;28;20056;-74
2022/06/01 11:55:05;;;;;;;2.90;1.50;;;16.40;99.90;;;;;;8367027;28;20416;-74
2022/06/01 11:59:21;;;;;;;3.85;1.38;;;16.40;99.90;;;;;;8360758;28;20052;-74
2022/06/01 12:03:30;;;;;;;3.05;1.60;;;16.40;99.90;;;;;;8358933;28;20111;-74
2022/06/01 12:08:06;;;;;;;4.75;2.10;;;16.40;99.90;;;;;;8358078;28;20053;-74
2022/06/01 12:12:25;;;;;;;2.80;1.48;;;16.30;99.90;;;;;;8381445;28;20048;-75
2022/06/01 12:16:29;;;;;;;3.95;1.50;;;16.20;99.90;;;;;;8368028;28;20044;-74
2022/06/01 12:20:33;;;;;;;4.53;1.77;;;16.20;99.90;;;;;;8356592;28;20803;-74
2022/06/01 12:29:13;;;;;;;4.88;1.80;;;16.30;99.90;;;;;;8360731;28;20048;-74
2022/06/01 12:33:15;;;;;;;4.40;2.33;;;16.20;99.90;;;;;;8363025;28;20056;-74
2022/06/01 12:37:33;;;;;;;4.88;2.30;;;16.30;99.90;;;;;;8378744;28;20052;-74
2022/06/01 12:41:38;;;;;;;4.90;2.78;;;16.30;99.90;;;;;;8364153;28;20105;-74
2022/06/01 12:45:43;;;;;;;6.85;3.20;;;16.40;99.90;;;;;;8359164;28;20056;-74
2022/06/01 12:50:16;;;;;;;4.18;2.35;;;16.40;99.90;;;;;;8357515;28;20048;-74
2022/06/01 12:55:00;;;;;;;4.72;2.25;;;16.50;99.90;;;;;;8355153;28;20045;-74
2022/06/01 12:59:14;;;;;;;3.65;2.08;;;16.60;99.90;;;;;;8350578;28;20055;-74
2022/06/01 13:03:19;;;;;;;4.05;2.20;;;16.50;99.90;;;;;;8357628;28;20053;-74
2022/06/01 13:07:27;;;;;;;3.78;1.80;;;16.40;99.90;;;;;;8358194;28;20051;-74
2022/06/01 13:11:38;;;;;;;3.50;1.80;;;16.30;99.90;;;;;;8358255;28;20044;-74
2022/06/01 13:15:42;;;;;;;4.40;2.00;;;16.50;99.90;;;;;;8353782;28;20064;-74
2022/06/01 13:19:57;;;;;;;3.30;1.63;;;16.50;99.90;;;;;;8357697;28;20076;-74
2022/06/01 13:24:04;;;;;;;3.70;1.88;;;16.60;99.90;;;;;;8360304;28;20036;-74
2022/06/01 13:28:07;;;;;;;4.07;2.00;;;16.70;99.90;;;;;;8354770;28;20037;-74
2022/06/01 13:32:11;;;;;;;4.18;1.90;;;16.70;99.90;;;;;;8355684;28;20040;-74
2022/06/01 13:36:30;;;;;;;4.55;2.58;;;16.80;99.90;;;;;;8353726;28;20048;-74
2022/06/01 13:40:35;;;;;;;4.90;2.80;;;16.70;99.90;;;;;;8351926;28;20480;-74
2022/06/01 13:44:54;;;;;;;5.43;3.08;;;16.70;99.90;;;;;;8360530;28;20053;-73
2022/06/01 13:48:56;;;;;;;6.10;2.65;;;16.80;99.90;;;;;;8358168;28;20044;-74
2022/06/01 13:53:01;;;;;;;4.95;2.60;;;17.00;99.90;;;;;;8355429;28;20110;-74
2022/06/01 13:57:17;;;;;;;4.60;2.70;;;16.90;99.90;;;;;;8372970;28;20049;-74
2022/06/01 14:01:49;;;;;;;3.72;1.90;;;16.90;99.90;;;;;;8356913;28;20355;-74
2022/06/01 14:05:57;;;;;;;4.55;2.42;;;17.00;99.90;;;;;;8354547;28;20120;-74
2022/06/01 14:10:00;;;;;;;5.40;2.92;;;16.90;99.90;;;;;;8373533;28;20064;-74
2022/06/01 14:14:08;;;;;;;4.32;2.50;;;16.80;99.90;;;;;;8362677;28;20041;-74
2022/06/01 14:18:14;;;;;;;5.78;2.60;;;16.90;99.90;;;;;;8367790;28;20504;-74
2022/06/01 14:22:18;;;;;;;3.78;1.90;;;16.90;99.90;;;;;;8371479;28;20064;-74
2022/06/01 14:31:25;;;;;;;5.45;2.15;;;17.20;99.90;;;;;;8359030;28;20056;-74
2022/06/01 14:35:31;;;;;;;3.70;2.00;;;17.30;99.90;;;;;;8361312;28;20454;-74
2022/06/01 14:39:37;;;;;;;5.78;2.33;;;17.30;99.90;;;;;;8383677;28;20534;-74
2022/06/01 14:43:39;;;;;;;3.80;2.17;;;17.40;99.90;;;;;;8357153;28;20052;-74
2022/06/01 14:47:41;;;;;;;6.38;2.83;;;17.40;99.90;;;;;;8367890;28;20045;-73
2022/06/01 14:51:51;;;;;;;4.45;2.60;;;17.50;99.90;;;;;;8379380;28;20448;-74
2022/06/01 14:55:53;;;;;;;4.90;2.40;;;17.70;99.90;;;;;;8376739;28;20049;-74
2022/06/01 14:59:55;;;;;;;4.68;2.15;;;17.50;99.90;;;;;;8369600;28;20044;-74
2022/06/01 15:03:57;;;;;;;5.28;2.28;;;17.40;99.90;;;;;;8377254;28;20044;-74
2022/06/01 15:07:59;;;;;;;4.55;2.63;;;17.20;99.90;;;;;;8359469;28;20098;-74
2022/06/01 15:12:01;;;;;;;5.13;2.70;;;17.30;99.90;;;;;;8377282;28;20335;-74
2022/06/01 15:16:05;;;;;;;4.40;2.70;;;17.30;99.90;;;;;;8365623;28;20489;-74
2022/06/01 15:20:08;;;;;;;6.03;3.17;;;17.20;99.90;;;;;;8362256;28;20427;-74
2022/06/01 15:24:10;;;;;;;4.68;2.60;;;17.20;99.90;;;;;;8365162;28;20041;-74
2022/06/01 15:28:13;;;;;;;4.78;2.80;;;17.10;99.90;;;;;;8361104;28;20048;-74
2022/06/01 15:40:57;;;;;;;4.05;2.30;;;17.00;99.90;;;;;;8361033;28;20088;-74
2022/06/01 15:44:59;;;;;;;5.43;2.90;;;16.90;99.90;;;;;;8363497;28;20045;-74
2022/06/01 15:49:07;;;;;;;4.35;2.38;;;16.90;99.90;;;;;;8369998;28;20041;-74
2022/06/01 15:53:10;;;;;;;4.40;2.00;;;17.30;99.90;;;;;;8360258;28;20456;-74
2022/06/01 15:57:13;;;;;;;4.18;2.10;;;17.60;99.90;;;;;;8376279;28;20050;-74
2022/06/01 16:01:15;;;;;;;4.07;2.03;;;17.80;99.90;;;;;;8363225;28;20083;-74
2022/06/01 16:05:18;;;;;;;4.53;2.30;;;17.50;99.90;;;;;;8357136;28;20045;-74
2022/06/01 16:09:20;;;;;;;4.20;2.08;;;17.20;99.90;;;;;;8364392;28;20108;-74
2022/06/01 16:13:22;;;;;;;4.20;2.10;;;17.10;99.90;;;;;;8359147;28;20065;-74
2022/06/01 16:17:29;;;;;;;5.18;2.53;;;17.20;99.90;;;;;;8359376;28;20052;-74
2022/06/01 16:21:38;;;;;;;5.05;2.55;;;17.00;99.90;;;;;;8389268;28;20068;-74
2022/06/01 16:25:40;;;;;;;5.75;3.38;;;16.80;99.90;;;;;;8364724;28;20045;-74
2022/06/01 16:29:44;;;;;;;6.22;3.67;;;16.70;99.90;;;;;;8359403;28;20044;-74
2022/06/01 16:33:46;;;;;;;6.13;2.95;;;16.60;99.90;;;;;;8356580;28;20511;-74
2022/06/01 16:37:48;;;;;;;4.68;2.53;;;17.10;99.90;;;;;;8370981;28;20052;-74
2022/06/01 16:41:50;;;;;;;5.40;2.55;;;18.10;99.90;;;;;;8359549;28;20489;-73
2022/06/01 16:45:54;;;;;;;4.22;2.33;;;18.30;99.90;;;;;;8364282;28;20101;-74
2022/06/01 16:49:59;;;;;;;5.30;2.88;;;18.20;99.90;;;;;;8357924;28;20068;-74
2022/06/01 16:54:01;;;;;;;4.75;2.40;;;18.10;99.90;;;;;;8362711;28;20059;-74
2022/06/01 16:58:03;;;;;;;4.80;2.30;;;18.20;99.90;;;;;;8354699;28;20492;-74
2022/06/01 17:02:07;;;;;;;4.63;2.30;;;18.10;99.90;;;;;;8360420;28;20408;-74
2022/06/01 17:06:11;;;;;;;4.30;2.20;;;17.80;99.90;;;;;;8362885;28;20086;-74
2022/06/01 17:10:14;;;;;;;4.32;1.70;;;17.60;99.90;;;;;;8375852;28;20055;-74
2022/06/01 17:14:15;;;;;;;3.88;1.95;;;17.40;99.90;;;;;;8360000;28;20049;-74
2022/06/01 17:18:20;;;;;;;4.50;2.08;;;17.20;99.90;;;;;;8362315;28;20052;-74
2022/06/01 17:22:21;;;;;;;4.10;2.50;;;17.20;99.90;;;;;;8391065;27;20044;-74
2022/06/01 17:26:23;;;;;;;5.13;2.20;;;17.10;99.90;;;;;;8362765;28;20064;-74
2022/06/01 17:30:28;;;;;;;3.83;2.17;;;17.00;99.90;;;;;;8360760;28;20049;-74
2022/06/01 17:34:30;;;;;;;4.70;2.70;;;16.90;99.90;;;;;;8358705;28;20041;-74
2022/06/01 17:38:31;;;;;;;3.58;1.73;;;16.90;99.90;;;;;;8371076;28;20048;-74
2022/06/01 17:42:33;;;;;;;3.72;2.10;;;17.00;99.90;;;;;;8370589;28;20056;-74
2022/06/01 17:46:36;;;;;;;3.63;2.00;;;17.00;99.90;;;;;;8360430;28;20045;-74
2022/06/01 17:50:38;;;;;;;4.32;2.20;;;16.90;99.90;;;;;;8367336;28;20128;-75
2022/06/01 17:54:40;;;;;;;4.47;2.78;;;16.70;99.90;;;;;;8356866;28;20056;-74
2022/06/01 17:58:43;;;;;;;4.75;2.08;;;16.60;99.90;;;;;;8356143;28;20045;-74
2022/06/01 18:02:44;;;;;;;4.05;2.25;;;16.60;99.90;;;;;;8356078;28;20064;-74
2022/06/01 18:06:48;;;;;;;3.78;1.95;;;16.60;99.90;;;;;;8380003;28;20057;-74
2022/06/01 18:10:50;;;;;;;3.80;2.10;;;16.50;99.90;;;;;;8354926;28;20400;-74
2022/06/01 18:14:51;;;;;;;4.53;2.03;;;16.40;99.90;;;;;;8389244;28;20571;-74
2022/06/01 18:18:54;;;;;;;4.80;2.30;;;16.30;99.90;;;;;;8360591;28;20661;-75
2022/06/01 18:22:56;;;;;;;4.97;2.40;;;16.30;99.90;;;;;;8387151;28;20062;-74
2022/06/01 18:26:58;;;;;;;3.75;2.05;;;16.30;99.90;;;;;;8362373;28;20048;-74
2022/06/01 18:31:09;;;;;;;4.30;2.28;;;16.30;99.90;;;;;;8361707;28;20500;-74
2022/06/01 18:35:11;;;;;;;4.32;1.95;;;16.20;99.90;;;;;;8356750;28;20071;-74
2022/06/01 18:39:15;;;;;;;3.75;1.83;;;16.20;99.90;;;;;;8363108;28;20503;-74
2022/06/01 18:43:23;;;;;;;3.97;2.08;;;16.10;99.90;;;;;;8357702;28;20060;-74
2022/06/01 18:47:24;;;;;;;;;;;15.90;99.90;;;;;;8360518;28;20048;-74
2022/06/01 18:51:31;;;;;;;4.70;2.00;;;15.80;99.90;;;;;;8365708;28;19929;-74
2022/06/01 18:55:47;;;;;;;3.88;1.85;;;15.70;99.90;;;;;;8358149;28;20392;-74
2022/06/01 19:04:12;;;;;;;3.15;1.50;;;15.60;99.90;;;;;;8359862;28;20053;-75
2022/06/01 19:08:17;;;;;;;3.10;1.67;;;15.60;99.90;;;;;;8364412;28;20048;-74
2022/06/01 19:12:20;;;;;;;3.80;1.67;;;15.60;99.90;;;;;;8361071;28;20048;-74
2022/06/01 19:16:24;;;;;;;3.50;1.70;;;15.50;99.90;;;;;;8362386;28;20048;-74
2022/06/01 19:20:26;;;;;;;4.75;2.05;;;15.50;99.90;;;;;;8367787;28;20091;-74
2022/06/01 19:24:29;;;;;;;4.22;1.80;;;15.50;99.90;;;;;;8363859;28;20067;-74
2022/06/01 19:28:35;;;;;;;5.07;2.33;;;15.40;99.90;;;;;;8357792;28;20507;-74
2022/06/01 19:32:37;;;;;;;3.53;1.80;;;15.30;99.90;;;;;;8362891;28;20049;-74
2022/06/01 19:45:22;;;;;;;4.22;1.92;;;15.10;99.90;;;;;;8361943;28;20053;-74
2022/06/01 19:49:23;;;;;;;3.60;1.70;;;15.10;99.90;;;;;;8376569;28;20052;-74
2022/06/01 19:53:25;;;;;;;5.18;2.38;;;15.00;99.90;;;;;;8371904;28;20044;-74
2022/06/01 19:57:27;;;;;;;3.60;2.00;;;15.00;99.90;;;;;;8377268;28;20114;-74
2022/06/01 20:01:29;;;;;;;4.28;2.00;;;14.90;99.90;;;;;;8359193;28;20261;-74
2022/06/01 20:05:32;;;;;;;3.85;2.00;;;14.80;99.90;;;;;;8366152;28;20056;-74
2022/06/01 20:09:34;;;;;;;3.50;1.77;;;14.80;99.90;;;;;;8373673;28;20265;-74
2022/06/01 20:13:36;;;;;;;4.15;1.90;;;14.70;99.90;;;;;;8369650;28;20044;-74
2022/06/01 20:17:40;;;;;;;4.68;1.90;;;14.70;99.90;;;;;;8362773;28;20464;-75
2022/06/01 20:21:41;;;;;;;3.63;1.67;;;14.70;99.90;;;;;;8387507;28;20067;-74
2022/06/01 20:25:44;;;;;;;3.70;1.58;;;14.70;99.90;;;;;;8376500;28;20099;-74
2022/06/01 20:29:47;;;;;;;3.22;1.50;;;14.60;99.90;;;;;;8371342;28;20049;-74
2022/06/01 20:33:49;;;;;;;3.80;1.75;;;14.50;99.90;;;;;;8403245;28;20052;-74
2022/06/01 20:37:51;;;;;;;3.22;1.63;;;14.40;99.90;;;;;;8374929;28;20492;-74
2022/06/01 20:41:53;;;;;;;4.80;2.00;;;14.30;99.90;;;;;;8373129;28;20068;-74
2022/06/01 20:45:58;;;;;;;3.70;1.90;;;14.20;99.90;;;;;;8372122;28;20060;-74
2022/06/01 20:50:01;;;;;;;3.87;1.90;;;14.20;99.90;;;;;;8366108;28;20099;-74
2022/06/01 20:54:04;;;;;;;3.97;2.20;;;14.20;99.90;;;;;;8371749;28;20045;-74
2022/06/01 20:58:05;;;;;;;3.78;1.92;;;14.20;99.90;;;;;;8368056;28;20008;-74
2022/06/01 21:02:07;;;;;;;4.65;2.13;;;14.10;99.90;;;;;;8383617;28;19932;-74
2022/06/01 21:06:09;;;;;;;3.53;1.80;;;14.00;99.90;;;;;;8400369;28;20499;-74
2022/06/01 21:10:14;;;;;;;3.67;1.88;;;13.90;99.90;;;;;;8387067;28;20052;-74
2022/06/01 21:14:15;;;;;;;3.67;1.93;;;13.90;99.90;;;;;;8403844;28;20445;-74
2022/06/01 21:18:17;;;;;;;3.60;1.80;;;13.80;99.90;;;;;;8398156;28;20279;-74
2022/06/01 21:22:19;;;;;;;;;;;13.70;99.90;;;;;;8396010;28;20713;-74
2022/06/01 21:26:21;;;;;;;3.30;1.70;;;13.60;99.90;;;;;;8381303;28;19928;-74
2022/06/01 21:30:28;;;;;;;6.38;2.08;;;13.50;99.90;;;;;;8407134;28;19931;-75
2022/06/01 21:34:30;;;;;;;4.20;1.90;;;13.40;99.90;;;;;;8406767;28;20064;-74
2022/06/01 21:38:38;;;;;;;5.18;2.15;;;13.40;99.90;;;;;;8393132;28;20052;-74
2022/06/01 21:42:41;;;;;;;4.00;1.90;;;13.30;99.90;;;;;;8398676;28;19931;-74
2022/06/01 21:46:42;;;;;;;4.00;2.20;;;13.30;99.90;;;;;;8398482;28;20062;-74
2022/06/01 21:50:44;;;;;;;;;;;13.30;99.90;;;;;;8400638;28;19925;-74
2022/06/01 21:54:46;;;;;;;4.30;2.42;;;13.20;99.90;;;;;;8391347;28;19924;-74
2022/06/01 21:58:48;;;;;;;4.47;2.53;;;13.10;99.90;;;;;;8384802;28;20067;-74
2022/06/01 22:02:50;;;;;;;4.30;2.10;;;13.00;99.90;;;;;;8394978;28;20049;-74
2022/06/01 22:06:52;;;;;;;4.18;2.30;;;13.00;99.90;;;;;;8392306;28;20040;-74
2022/06/01 22:15:16;;;;;;;4.30;2.10;;;12.90;99.90;;;;;;8407203;28;20059;-74
2022/06/01 22:19:18;;;;;;;4.53;2.30;;;12.80;99.90;;;;;;8396893;28;20500;-73
2022/06/01 22:23:20;;;;;;;4.28;2.20;;;12.80;99.90;;;;;;8388941;28;20052;-74
2022/06/01 22:27:22;;;;;;;4.72;2.30;;;12.80;99.90;;;;;;8403382;28;20055;-74
2022/06/01 22:31:24;;;;;;;4.47;2.50;;;12.70;99.90;;;;;;8401492;28;20486;-73
2022/06/01 22:39:52;;;;;;;4.18;2.40;;;12.50;99.90;;;;;;8408774;28;20394;-74
2022/06/01 22:43:55;;;;;;;4.35;2.25;;;12.30;99.90;;;;;;8409323;28;20491;-74
2022/06/01 22:48:03;;;;;;;4.38;2.35;;;12.30;99.90;;;;;;8423895;28;20059;-74
2022/06/01 22:52:13;;;;;;;5.45;2.42;;;12.20;99.90;;;;;;8395067;28;20051;-74
2022/06/01 22:56:15;;;;;;;3.80;2.22;;;12.20;99.90;;;;;;8397089;28;20613;-74
2022/06/01 23:00:17;;;;;;;4.75;2.60;;;12.20;99.90;;;;;;8411484;28;20393;-74
2022/06/01 23:04:18;;;;;;;4.45;2.30;;;12.10;99.90;;;;;;8412893;28;20059;-74